createdAt,value
2018-11-11T00:00:33.862Z,101167.51
2018-11-11T00:03:37.352Z,101171.56
2018-11-11T00:06:40.863Z,101174.32
2018-11-11T00:09:44.754Z,101180.42
2018-11-11T00:12:48.179Z,101183.70
2018-11-11T00:15:51.650Z,101188.47
2018-11-11T00:18:55.057Z,101183.54
2018-11-11T00:21:59.466Z,101186.86
2018-11-11T00:25:02.876Z,101183.47
2018-11-11T00:28:06.331Z,101180.99
2018-11-11T00:31:09.840Z,101178.69
2018-11-11T00:34:13.660Z,101176.65
2018-11-11T00:37:17.105Z,101181.65
2018-11-11T00:40:20.521Z,101174.04
2018-11-11T00:43:24.025Z,101181.33
2018-11-11T00:46:27.547Z,101179.53
2018-11-11T00:49:30.982Z,101174.49
2018-11-11T00:52:34.497Z,101173.22
2018-11-11T00:55:39.460Z,101177.04
2018-11-11T00:58:42.926Z,101176.41
2018-11-11T01:01:46.334Z,101173.68
2018-11-11T01:04:49.727Z,101179.20
2018-11-11T01:07:53.142Z,101190.95
2018-11-11T01:10:56.624Z,101188.74
2018-11-11T01:14:00.040Z,101191.54
2018-11-11T01:17:03.437Z,101189.70
2018-11-11T01:20:08.820Z,101190.32
2018-11-11T01:23:12.177Z,101189.53
2018-11-11T01:26:15.591Z,101198.20
2018-11-11T01:29:18.990Z,101211.86
2018-11-11T01:32:23.445Z,101219.10
2018-11-11T01:35:26.807Z,101225.48
2018-11-11T01:38:30.274Z,101232.63
2018-11-11T01:41:33.651Z,101224.19
2018-11-11T01:44:37.106Z,101225.99
2018-11-11T01:47:40.588Z,101220.11
2018-11-11T01:50:44.030Z,101229.97
2018-11-11T01:53:47.412Z,101228.90
2018-11-11T01:56:50.831Z,101226.42
2018-11-11T01:59:54.212Z,101221.45
2018-11-11T02:02:57.608Z,101215.75
2018-11-11T02:06:01.029Z,101212.08
2018-11-11T02:09:06.977Z,101211.65
2018-11-11T02:12:10.375Z,101216.52
2018-11-11T02:15:14.931Z,101219.69
2018-11-11T02:18:18.300Z,101211.73
2018-11-11T02:21:21.774Z,101203.53
2018-11-11T02:24:25.258Z,101203.84
2018-11-11T02:27:28.734Z,101206.95
2018-11-11T02:30:32.170Z,101202.74
2018-11-11T02:33:35.677Z,101200.55
2018-11-11T02:36:39.226Z,101214.10
2018-11-11T02:39:42.844Z,101208.89
2018-11-11T02:42:46.560Z,101191.58
2018-11-11T02:45:50.044Z,101199.27
2018-11-11T02:48:53.570Z,101205.33
2018-11-11T02:51:57.374Z,101206.70
2018-11-11T02:55:00.887Z,101207.93
2018-11-11T02:58:04.457Z,101197.47
2018-11-11T03:01:08.003Z,101209.03
2018-11-11T03:04:11.557Z,101207.02
2018-11-11T03:07:14.978Z,101207.76
2018-11-11T03:10:18.896Z,101214.33
2018-11-11T03:13:22.393Z,101209.68
2018-11-11T03:16:25.938Z,101208.07
2018-11-11T03:19:29.474Z,101204.89
2018-11-11T03:22:33.443Z,101200.17
2018-11-11T03:25:36.949Z,101200.10
2018-11-11T03:28:41.445Z,101192.81
2018-11-11T03:31:45.071Z,101196.95
2018-11-11T03:34:48.634Z,101197.49
2018-11-11T03:37:52.152Z,101199.68
2018-11-11T03:40:55.622Z,101205.48
2018-11-11T03:43:59.190Z,101197.10
2018-11-11T03:47:02.701Z,101212.05
2018-11-11T03:50:07.170Z,101219.29
2018-11-11T03:53:10.675Z,101223.59
2018-11-11T03:56:14.152Z,101227.75
2018-11-11T03:59:17.661Z,101224.33
2018-11-11T04:02:21.178Z,101216.29
2018-11-11T04:05:24.656Z,101211.13
2018-11-11T04:08:28.222Z,101209.99
2018-11-11T04:11:31.646Z,101212.97
2018-11-11T04:14:35.212Z,101200.93
2018-11-11T04:17:39.118Z,101182.96
2018-11-11T04:20:42.582Z,101177.31
2018-11-11T04:23:46.079Z,101174.48
2018-11-11T04:26:50.504Z,101175.17
2018-11-11T04:29:53.920Z,101166.35
2018-11-11T04:32:57.415Z,101159.03
2018-11-11T04:36:00.921Z,101160.13
2018-11-11T04:39:06.213Z,101157.40
2018-11-11T04:42:09.683Z,101152.01
2018-11-11T04:45:14.461Z,101158.75
2018-11-11T04:48:17.892Z,101164.07
2018-11-11T04:51:21.355Z,101162.50
2018-11-11T04:54:25.102Z,101182.03
2018-11-11T04:57:28.536Z,101186.47
2018-11-11T05:00:32.007Z,101172.64
2018-11-11T05:03:35.548Z,101170.23
2018-11-11T05:06:39.012Z,101163.08
2018-11-11T05:09:42.532Z,101161.15
2018-11-11T05:12:46.280Z,101170.20
2018-11-11T05:15:49.730Z,101177.07
2018-11-11T05:18:53.128Z,101174.41
2018-11-11T05:21:56.750Z,101178.51
2018-11-11T05:25:00.143Z,101177.50
2018-11-11T05:28:03.657Z,101184.04
2018-11-11T05:31:07.246Z,101182.84
2018-11-11T05:34:10.969Z,101184.12
2018-11-11T05:37:14.619Z,101193.23
2018-11-11T05:40:18.102Z,101203.49
2018-11-11T05:43:21.580Z,101198.77
2018-11-11T05:46:25.970Z,101197.84
2018-11-11T05:49:29.804Z,101202.76
2018-11-11T05:52:33.345Z,101198.01
2018-11-11T05:55:36.847Z,101217.22
2018-11-11T05:58:40.367Z,101235.31
2018-11-11T06:01:43.868Z,101243.17
2018-11-11T06:04:47.353Z,101232.10
2018-11-11T06:07:50.872Z,101244.33
2018-11-11T06:10:54.363Z,101272.76
2018-11-11T06:13:58.043Z,101262.25
2018-11-11T06:17:01.545Z,101305.81
2018-11-11T06:20:06.137Z,101383.06
2018-11-11T06:23:09.571Z,101386.07
2018-11-11T06:26:13.081Z,101375.26
2018-11-11T06:29:16.739Z,101398.79
2018-11-11T06:32:20.230Z,101406.73
2018-11-11T06:35:23.805Z,101403.17
2018-11-11T06:38:27.318Z,101405.17
2018-11-11T06:41:30.777Z,101407.18
2018-11-11T06:44:34.196Z,101403.04
2018-11-11T06:47:37.725Z,101403.16
2018-11-11T06:50:41.168Z,101397.16
2018-11-11T06:53:44.619Z,101392.99
2018-11-11T06:56:48.048Z,101389.57
2018-11-11T06:59:52.030Z,101386.99
2018-11-11T07:03:06.806Z,101376.28
2018-11-11T07:06:10.269Z,101361.95
2018-11-11T07:09:13.669Z,101363.51
2018-11-11T07:12:17.040Z,101358.10
2018-11-11T07:15:20.468Z,101369.44
2018-11-11T07:18:23.877Z,101378.22
2018-11-11T07:21:27.267Z,101388.61
2018-11-11T07:24:30.668Z,101393.36
2018-11-11T07:27:34.036Z,101406.66
2018-11-11T07:30:37.447Z,101410.44
2018-11-11T07:33:40.966Z,101404.01
2018-11-11T07:36:44.362Z,101404.43
2018-11-11T07:39:47.776Z,101398.78
2018-11-11T07:42:51.213Z,101402.40
2018-11-11T07:45:54.708Z,101415.56
2018-11-11T07:48:58.156Z,101416.06
2018-11-11T07:52:01.592Z,101419.15
2018-11-11T07:55:05.615Z,101414.46
2018-11-11T07:58:09.024Z,101422.00
2018-11-11T08:01:12.497Z,101415.90
2018-11-11T08:04:15.968Z,101420.96
2018-11-11T08:07:19.702Z,101439.45
2018-11-11T08:10:34.392Z,101448.40
2018-11-11T08:13:37.833Z,101444.47
2018-11-11T08:16:42.818Z,101435.00
2018-11-11T08:19:46.274Z,101445.31
2018-11-11T08:22:49.804Z,101441.72
2018-11-11T08:25:53.339Z,101432.73
2018-11-11T08:28:56.781Z,101442.17
2018-11-11T08:32:00.351Z,101444.46
2018-11-11T08:35:03.856Z,101448.50
2018-11-11T08:38:07.283Z,101452.10
2018-11-11T08:41:10.930Z,101457.79
2018-11-11T08:44:15.482Z,101458.99
2018-11-11T08:47:18.845Z,101473.14
2018-11-11T08:50:22.343Z,101474.80
2018-11-11T08:53:25.824Z,101471.47
2018-11-11T08:56:29.317Z,101477.89
2018-11-11T08:59:32.986Z,101490.88
2018-11-11T09:02:36.466Z,101490.15
2018-11-11T09:05:39.959Z,101495.59
2018-11-11T09:08:43.423Z,101496.72
2018-11-11T09:11:46.946Z,101496.83
2018-11-11T09:14:50.518Z,101494.57
2018-11-11T09:17:53.929Z,101501.09
2018-11-11T09:20:57.672Z,101512.43
2018-11-11T09:24:01.210Z,101503.25
2018-11-11T09:27:04.835Z,101503.29
2018-11-11T09:30:10.537Z,101506.41
2018-11-11T09:33:14.078Z,101503.86
2018-11-11T09:36:17.516Z,101503.04
2018-11-11T09:39:21.081Z,101499.96
2018-11-11T09:42:24.548Z,101496.76
2018-11-11T09:45:28.007Z,101501.69
2018-11-11T09:48:31.484Z,101498.21
2018-11-11T09:51:34.973Z,101502.17
2018-11-11T09:54:38.450Z,101511.52
2018-11-11T09:57:42.156Z,101510.86
2018-11-11T10:00:45.634Z,101502.10
2018-11-11T10:03:58.562Z,101502.20
2018-11-11T10:07:07.388Z,101498.90
2018-11-11T10:10:16.428Z,101493.03
2018-11-11T10:13:25.631Z,101492.01
2018-11-11T10:17:07.607Z,101486.35
2018-11-11T10:20:15.864Z,101479.31
2018-11-11T10:23:23.361Z,101469.09
2018-11-11T10:26:32.788Z,101471.76
2018-11-11T10:30:42.438Z,101458.64
2018-11-11T10:33:49.412Z,101460.16
2018-11-11T10:36:59.977Z,101454.77
2018-11-11T10:40:08.503Z,101457.04
2018-11-11T10:44:15.339Z,101464.54
2018-11-11T10:47:53.119Z,101455.41
2018-11-11T10:50:58.862Z,101448.32
2018-11-11T10:54:02.654Z,101450.43
2018-11-11T10:57:06.475Z,101447.52
2018-11-11T11:00:14.240Z,101441.80
2018-11-11T11:03:22.989Z,101445.42
2018-11-11T11:06:31.851Z,101444.65
2018-11-11T11:09:35.589Z,101447.91
2018-11-11T11:12:38.934Z,101450.60
2018-11-11T11:15:42.531Z,101452.73
2018-11-11T11:18:46.456Z,101440.75
2018-11-11T11:21:51.146Z,101447.85
2018-11-11T11:24:55.254Z,101449.39
2018-11-11T11:27:58.744Z,101449.95
2018-11-11T11:31:02.197Z,101444.01
2018-11-11T11:34:06.078Z,101446.98
2018-11-11T11:37:09.554Z,101446.83
2018-11-11T11:40:12.941Z,101448.63
2018-11-11T11:43:16.321Z,101447.85
2018-11-11T11:46:19.747Z,101445.98
2018-11-11T11:49:23.236Z,101445.18
2018-11-11T11:52:27.111Z,101445.72
2018-11-11T11:55:30.449Z,101454.18
2018-11-11T11:58:33.871Z,101450.18
2018-11-11T12:01:37.323Z,101451.21
2018-11-11T12:04:40.943Z,101449.45
2018-11-11T12:07:44.427Z,101453.75
2018-11-11T12:10:47.926Z,101450.28
2018-11-11T12:13:51.375Z,101454.97
2018-11-11T12:16:54.796Z,101458.57
2018-11-11T12:19:58.249Z,101472.32
2018-11-11T12:23:01.704Z,101474.15
2018-11-11T12:26:05.355Z,101473.79
2018-11-11T12:29:08.809Z,101481.57
2018-11-11T12:32:12.186Z,101481.67
2018-11-11T12:35:15.706Z,101473.56
2018-11-11T12:38:19.112Z,101468.69
2018-11-11T12:41:22.458Z,101477.86
2018-11-11T12:44:25.883Z,101484.60
2018-11-11T12:47:30.331Z,101477.52
2018-11-11T12:50:33.767Z,101477.94
2018-11-11T12:53:37.167Z,101491.10
2018-11-11T12:56:40.527Z,101498.63
2018-11-11T12:59:43.902Z,101499.05
2018-11-11T13:02:47.505Z,101497.35
2018-11-11T13:05:51.073Z,101490.00
2018-11-11T13:08:54.624Z,101488.76
2018-11-11T13:11:58.234Z,101488.08
2018-11-11T13:15:01.678Z,101493.22
2018-11-11T13:18:05.661Z,101492.79
2018-11-11T13:21:09.188Z,101485.53
2018-11-11T13:24:12.713Z,101489.40
2018-11-11T13:27:16.716Z,101483.47
2018-11-11T13:30:20.151Z,101491.99
2018-11-11T13:33:23.690Z,101483.74
2018-11-11T13:36:27.329Z,101486.25
2018-11-11T13:39:30.936Z,101485.43
2018-11-11T13:42:36.453Z,101474.71
2018-11-11T13:45:39.934Z,101471.28
2018-11-11T13:48:44.519Z,101479.60
2018-11-11T13:51:49.012Z,101473.31
2018-11-11T13:54:52.563Z,101476.91
2018-11-11T13:57:56.157Z,101478.50
2018-11-11T14:00:59.795Z,101475.91
2018-11-11T14:04:03.507Z,101468.72
2018-11-11T14:07:07.075Z,101463.75
2018-11-11T14:10:11.902Z,101463.42
2018-11-11T14:13:15.734Z,101462.25
2018-11-11T14:16:19.379Z,101465.39
2018-11-11T14:19:23.039Z,101464.88
2018-11-11T14:22:26.536Z,101451.55
2018-11-11T14:25:30.753Z,101458.67
2018-11-11T14:28:34.383Z,101466.42
2018-11-11T14:31:38.919Z,101466.15
2018-11-11T14:34:42.489Z,101459.77
2018-11-11T14:37:52.319Z,101449.29
2018-11-11T14:40:55.810Z,101459.09
2018-11-11T14:43:59.575Z,101455.26
2018-11-11T14:47:03.305Z,101449.10
2018-11-11T14:50:10.958Z,101453.35
2018-11-11T14:53:21.748Z,101453.08
2018-11-11T14:56:25.331Z,101453.65
2018-11-11T14:59:31.109Z,101454.41
2018-11-11T15:02:34.971Z,101440.35
2018-11-11T15:05:39.910Z,101441.44
2018-11-11T15:08:43.464Z,101438.21
2018-11-11T15:11:46.983Z,101439.78
2018-11-11T15:14:50.485Z,101433.00
2018-11-11T15:17:54.797Z,101432.07
2018-11-11T15:20:58.472Z,101440.68
2018-11-11T15:24:02.060Z,101443.48
2018-11-11T15:27:05.940Z,101434.96
2018-11-11T15:30:13.053Z,101445.04
2018-11-11T15:33:16.623Z,101440.87
2018-11-11T15:36:21.234Z,101442.93
2018-11-11T15:39:25.674Z,101447.57
2018-11-11T15:42:29.373Z,101456.99
2018-11-11T15:45:33.953Z,101459.85
2018-11-11T15:48:42.389Z,101452.72
2018-11-11T15:51:46.261Z,101457.31
2018-11-11T15:54:50.885Z,101460.73
2018-11-11T15:57:57.729Z,101455.95
2018-11-11T16:01:01.198Z,101451.78
2018-11-11T16:04:05.092Z,101460.42
2018-11-11T16:07:08.656Z,101464.59
2018-11-11T16:10:14.381Z,101469.76
2018-11-11T16:13:17.858Z,101489.06
2018-11-11T16:16:21.493Z,101502.24
2018-11-11T16:19:24.960Z,101507.19
2018-11-11T16:22:28.535Z,101506.11
2018-11-11T16:25:32.090Z,101500.59
2018-11-11T16:28:35.613Z,101506.53
2018-11-11T16:31:39.206Z,101509.90
2018-11-11T16:34:42.734Z,101509.61
2018-11-11T16:37:46.462Z,101518.11
2018-11-11T16:40:50.409Z,101524.83
2018-11-11T16:43:54.101Z,101529.89
2018-11-11T16:46:57.651Z,101534.66
2018-11-11T16:50:01.249Z,101528.87
2018-11-11T16:53:06.392Z,101534.06
2018-11-11T16:56:09.914Z,101539.12
2018-11-11T16:59:13.358Z,101540.79
2018-11-11T17:02:16.862Z,101562.87
2018-11-11T17:05:21.824Z,101566.82
2018-11-11T17:08:25.298Z,101559.75
2018-11-11T17:11:28.800Z,101562.43
2018-11-11T17:14:32.389Z,101562.99
2018-11-11T17:17:35.977Z,101563.85
2018-11-11T17:20:39.680Z,101563.34
2018-11-11T17:23:43.146Z,101562.14
2018-11-11T17:26:46.641Z,101565.42
2018-11-11T17:29:50.439Z,101559.30
2018-11-11T17:32:54.277Z,101557.65
2018-11-11T17:35:58.253Z,101556.61
2018-11-11T17:39:01.785Z,101559.42
2018-11-11T17:42:05.282Z,101570.27
2018-11-11T17:45:10.527Z,101569.19
2018-11-11T17:48:14.060Z,101577.17
2018-11-11T17:51:17.562Z,101577.21
2018-11-11T17:54:21.247Z,101581.83
2018-11-11T17:57:24.722Z,101576.03
2018-11-11T18:00:29.365Z,101576.65
2018-11-11T18:03:32.967Z,101565.60
2018-11-11T18:06:36.431Z,101565.68
2018-11-11T18:09:40.892Z,101567.29
2018-11-11T18:12:44.469Z,101562.45
2018-11-11T18:15:48.016Z,101566.95
2018-11-11T18:18:51.811Z,101565.92
2018-11-11T18:21:55.641Z,101565.24
2018-11-11T18:24:59.263Z,101562.59
2018-11-11T18:28:02.988Z,101565.98
2018-11-11T18:31:06.381Z,101570.67
2018-11-11T18:34:09.903Z,101578.41
2018-11-11T18:37:13.408Z,101588.31
2018-11-11T18:40:18.667Z,101592.20
2018-11-11T18:43:22.057Z,101586.53
2018-11-11T18:46:25.894Z,101592.60
2018-11-11T18:49:29.601Z,101600.49
2018-11-11T18:52:33.101Z,101605.82
2018-11-11T18:55:36.604Z,101603.12
2018-11-11T18:58:40.013Z,101595.57
2018-11-11T19:01:43.824Z,101608.99
2018-11-11T19:04:47.352Z,101610.45
2018-11-11T19:07:51.029Z,101611.43
2018-11-11T19:10:54.772Z,101613.76
2018-11-11T19:13:59.017Z,101614.28
2018-11-11T19:17:02.488Z,101610.25
2018-11-11T19:20:08.043Z,101612.23
2018-11-11T19:23:11.720Z,101615.37
2018-11-11T19:26:18.638Z,101608.49
2018-11-11T19:29:31.470Z,101612.76
2018-11-11T19:32:35.048Z,101609.10
2018-11-11T19:35:38.807Z,101608.99
2018-11-11T19:38:42.242Z,101607.03
2018-11-11T19:41:45.837Z,101608.13
2018-11-11T19:44:49.517Z,101611.02
2018-11-11T19:47:53.969Z,101613.72
2018-11-11T19:50:57.445Z,101614.77
2018-11-11T19:54:01.098Z,101611.60
2018-11-11T19:57:04.617Z,101595.65
2018-11-11T20:00:11.879Z,101600.62
2018-11-11T20:03:15.366Z,101618.08
2018-11-11T20:06:18.879Z,101626.62
2018-11-11T20:09:22.256Z,101625.85
2018-11-11T20:12:25.799Z,101638.04
2018-11-11T20:15:30.526Z,101640.62
2018-11-11T20:18:34.011Z,101654.72
2018-11-11T20:21:37.391Z,101658.31
2018-11-11T20:24:40.801Z,101664.14
2018-11-11T20:27:44.531Z,101669.29
2018-11-11T20:30:48.000Z,101673.28
2018-11-11T20:33:51.481Z,101674.00
2018-11-11T20:36:54.924Z,101680.65
2018-11-11T20:39:58.292Z,101674.95
2018-11-11T20:43:01.759Z,101675.27
2018-11-11T20:46:05.095Z,101679.38
2018-11-11T20:49:08.644Z,101683.66
2018-11-11T20:52:12.152Z,101686.11
2018-11-11T20:55:16.342Z,101689.69
2018-11-11T20:58:19.744Z,101680.38
2018-11-11T21:01:23.130Z,101681.20
2018-11-11T21:04:26.684Z,101681.41
2018-11-11T21:07:30.403Z,101682.29
2018-11-11T21:10:33.763Z,101688.44
2018-11-11T21:13:37.321Z,101688.45
2018-11-11T21:16:40.844Z,101683.00
2018-11-11T21:19:44.361Z,101681.74
2018-11-11T21:22:47.860Z,101692.50
2018-11-11T21:25:51.393Z,101685.42
2018-11-11T21:28:54.856Z,101690.64
2018-11-11T21:31:58.338Z,101696.85
2018-11-11T21:35:02.887Z,101693.96
2018-11-11T21:38:06.391Z,101707.08
2018-11-11T21:41:10.035Z,101713.05
2018-11-11T21:44:13.669Z,101716.33
2018-11-11T21:47:17.350Z,101708.71
2018-11-11T21:50:22.975Z,101717.41
2018-11-11T21:53:33.319Z,101716.26
2018-11-11T21:56:36.931Z,101716.73
2018-11-11T21:59:40.475Z,101718.27
2018-11-11T22:02:44.025Z,101721.16
2018-11-11T22:05:47.584Z,101720.76
2018-11-11T22:08:51.070Z,101719.97
2018-11-11T22:11:55.570Z,101722.35
2018-11-11T22:14:59.060Z,101723.17
2018-11-11T22:18:02.578Z,101726.81
2018-11-11T22:21:06.067Z,101730.36
2018-11-11T22:24:09.838Z,101729.29
2018-11-11T22:27:13.442Z,101730.02
2018-11-11T22:30:16.898Z,101738.51
2018-11-11T22:33:20.553Z,101740.76
2018-11-11T22:36:24.606Z,101743.97
2018-11-11T22:39:28.125Z,101743.73
2018-11-11T22:42:31.722Z,101739.57
2018-11-11T22:45:35.183Z,101731.04
2018-11-11T22:48:38.749Z,101745.34
2018-11-11T22:51:42.381Z,101748.42
2018-11-11T22:54:45.825Z,101745.65
2018-11-11T22:57:49.533Z,101742.77
2018-11-11T23:00:58.501Z,101739.18
2018-11-11T23:04:03.156Z,101735.60
2018-11-11T23:07:06.598Z,101747.11
2018-11-11T23:10:10.785Z,101740.16
2018-11-11T23:13:19.338Z,101744.66
2018-11-11T23:16:23.768Z,101746.28
2018-11-11T23:19:28.453Z,101745.37
2018-11-11T23:22:31.894Z,101745.37
2018-11-11T23:25:35.461Z,101746.72
2018-11-11T23:28:38.912Z,101742.54
2018-11-11T23:31:42.737Z,101748.07
2018-11-11T23:34:46.222Z,101755.83
2018-11-11T23:37:51.742Z,101759.19
2018-11-11T23:40:56.253Z,101752.59
2018-11-11T23:43:59.716Z,101751.06
2018-11-11T23:47:03.203Z,101755.31
2018-11-11T23:50:10.512Z,101754.05
2018-11-11T23:53:14.277Z,101745.03
2018-11-11T23:56:17.813Z,101745.14
2018-11-11T23:59:21.344Z,101742.97
